createdAt,value
2023-04-25T00:01:48.978Z,5.60
2023-04-25T00:04:18.629Z,6.40
2023-04-25T00:06:46.905Z,6.30
2023-04-25T00:09:15.016Z,6.50
2023-04-25T00:11:43.134Z,5.50
2023-04-25T00:14:12.326Z,5.50
2023-04-25T00:16:42.157Z,5.40
2023-04-25T00:19:10.605Z,5.40
2023-04-25T00:21:41.481Z,5.50
2023-04-25T00:24:09.888Z,5.40
2023-04-25T00:26:37.904Z,5.40
2023-04-25T00:29:06.053Z,5.40
2023-04-25T00:31:34.100Z,5.40
2023-04-25T00:34:02.310Z,5.40
2023-04-25T00:36:31.034Z,5.40
2023-04-25T00:39:00.406Z,5.30
2023-04-25T00:41:28.821Z,5.30
2023-04-25T00:43:57.972Z,5.30
2023-04-25T00:46:26.091Z,5.30
2023-04-25T00:48:54.075Z,5.30
2023-04-25T00:51:23.050Z,5.30
2023-04-25T00:53:52.282Z,5.30
2023-04-25T00:56:22.830Z,5.30
2023-04-25T00:58:54.119Z,5.40
2023-04-25T01:01:22.291Z,5.40
2023-04-25T01:03:52.349Z,3.90
2023-04-25T01:06:20.781Z,5.40
2023-04-25T01:08:48.839Z,5.30
2023-04-25T01:11:16.859Z,5.30
2023-04-25T01:13:46.344Z,7.20
2023-04-25T01:16:14.451Z,6.40
2023-04-25T01:18:43.701Z,5.10
2023-04-25T01:21:14.214Z,5.10
2023-04-25T01:23:43.017Z,5.10
2023-04-25T01:26:12.544Z,5.10
2023-04-25T01:28:42.305Z,5.10
2023-04-25T01:31:11.175Z,5.10
2023-04-25T01:33:39.959Z,5.10
2023-04-25T01:36:08.513Z,5.20
2023-04-25T01:38:38.081Z,5.20
2023-04-25T01:41:07.071Z,5.60
2023-04-25T01:43:35.253Z,5.20
2023-04-25T01:46:03.339Z,5.20
2023-04-25T01:48:31.423Z,5.30
2023-04-25T01:50:59.725Z,5.30
2023-04-25T01:53:28.027Z,5.40
2023-04-25T01:55:57.400Z,6.20
2023-04-25T01:58:25.405Z,5.50
2023-04-25T02:00:53.474Z,5.50
2023-04-25T02:03:21.735Z,5.50
2023-04-25T02:05:49.845Z,6.10
2023-04-25T02:08:19.183Z,5.60
2023-04-25T02:10:47.293Z,5.60
2023-04-25T02:13:16.844Z,5.60
2023-04-25T02:15:44.941Z,5.60
2023-04-25T02:18:13.123Z,5.60
2023-04-25T02:20:41.188Z,5.90
2023-04-25T02:23:09.322Z,5.60
2023-04-25T02:25:37.349Z,5.60
2023-04-25T02:28:05.757Z,5.90
2023-04-25T02:30:36.303Z,5.60
2023-04-25T02:33:04.473Z,5.60
2023-04-25T02:35:32.602Z,5.60
2023-04-25T02:38:00.618Z,5.80
2023-04-25T02:40:28.839Z,5.60
2023-04-25T02:42:56.814Z,5.60
2023-04-25T02:45:24.862Z,5.60
2023-04-25T02:47:54.330Z,6.70
2023-04-25T02:50:22.496Z,5.60
2023-04-25T02:52:50.578Z,6.50
2023-04-25T02:55:18.824Z,6.40
2023-04-25T02:57:46.825Z,5.60
2023-04-25T03:00:16.173Z,5.70
2023-04-25T03:02:44.404Z,5.60
2023-04-25T03:05:13.886Z,5.60
2023-04-25T03:07:41.992Z,5.60
2023-04-25T03:10:10.486Z,6.40
2023-04-25T03:12:38.699Z,5.60
2023-04-25T03:15:07.776Z,5.60
2023-04-25T03:17:35.900Z,5.60
2023-04-25T03:20:06.354Z,5.60
2023-04-25T03:22:35.801Z,5.60
2023-04-25T03:25:03.821Z,7.00
2023-04-25T03:27:31.930Z,5.60
2023-04-25T03:29:59.992Z,5.60
2023-04-25T03:32:28.257Z,5.60
2023-04-25T03:34:56.448Z,7.10
2023-04-25T03:37:24.532Z,5.70
2023-04-25T03:39:53.974Z,5.60
2023-04-25T03:42:23.796Z,5.90
2023-04-25T03:44:52.065Z,5.60
2023-04-25T03:47:20.093Z,5.50
2023-04-25T03:49:48.084Z,5.50
2023-04-25T03:52:16.721Z,5.50
2023-04-25T03:54:44.782Z,5.40
2023-04-25T03:57:14.138Z,5.40
2023-04-25T03:59:42.166Z,5.40
2023-04-25T04:02:10.217Z,6.40
2023-04-25T04:04:38.680Z,5.30
2023-04-25T04:07:06.863Z,6.50
2023-04-25T04:09:34.842Z,5.40
2023-04-25T04:12:03.462Z,5.40
2023-04-25T04:14:33.008Z,7.30
2023-04-25T04:17:01.038Z,5.50
2023-04-25T04:19:29.019Z,5.60
2023-04-25T04:21:56.996Z,5.60
2023-04-25T04:24:25.128Z,5.60
2023-04-25T04:26:53.148Z,5.60
2023-04-25T04:29:22.685Z,5.60
2023-04-25T04:31:53.723Z,5.60
2023-04-25T04:34:21.927Z,5.60
2023-04-25T04:36:50.292Z,5.60
2023-04-25T04:39:18.240Z,5.70
2023-04-25T04:41:46.381Z,5.70
2023-04-25T04:44:15.780Z,5.70
2023-04-25T04:46:43.951Z,5.70
2023-04-25T04:49:14.769Z,5.70
2023-04-25T04:51:45.491Z,5.70
2023-04-25T04:54:13.615Z,5.70
2023-04-25T04:56:42.815Z,5.80
2023-04-25T04:59:11.369Z,6.40
2023-04-25T05:01:39.609Z,5.70
2023-04-25T05:04:08.320Z,5.70
2023-04-25T05:06:37.791Z,5.70
2023-04-25T05:09:06.041Z,5.70
2023-04-25T05:11:34.022Z,5.70
2023-04-25T05:14:02.040Z,5.80
2023-04-25T05:16:30.022Z,5.60
2023-04-25T05:18:57.995Z,5.70
2023-04-25T05:21:26.394Z,5.70
2023-04-25T05:23:56.774Z,5.70
2023-04-25T05:26:24.988Z,5.90
2023-04-25T05:28:53.012Z,6.00
2023-04-25T05:31:21.022Z,6.20
2023-04-25T05:33:49.253Z,6.30
2023-04-25T05:36:17.312Z,6.50
2023-04-25T05:38:45.267Z,6.80
2023-04-25T05:41:14.585Z,6.80
2023-04-25T05:43:46.127Z,6.80
2023-04-25T05:46:14.130Z,7.00
2023-04-25T05:48:42.232Z,7.10
2023-04-25T05:51:10.374Z,7.40
2023-04-25T05:53:38.424Z,7.70
2023-04-25T05:56:06.795Z,8.00
2023-04-25T05:58:36.176Z,8.20
2023-04-25T06:01:04.712Z,8.20
2023-04-25T06:03:33.055Z,8.00
2023-04-25T06:06:01.458Z,8.40
2023-04-25T06:08:29.463Z,7.90
2023-04-25T06:10:57.413Z,7.90
2023-04-25T06:13:25.376Z,8.30
2023-04-25T06:15:54.706Z,8.80
2023-04-25T06:18:22.732Z,9.10
2023-04-25T06:20:50.671Z,8.40
2023-04-25T06:23:18.679Z,8.60
2023-04-25T06:25:46.689Z,8.60
2023-04-25T06:28:14.713Z,8.40
2023-04-25T06:30:42.704Z,8.30
2023-04-25T06:33:12.193Z,8.30
2023-04-25T06:35:40.503Z,8.90
2023-04-25T06:38:08.462Z,9.20
2023-04-25T06:40:36.416Z,9.60
2023-04-25T06:43:04.355Z,9.30
2023-04-25T06:45:32.483Z,9.40
2023-04-25T06:48:00.638Z,9.30
2023-04-25T06:50:30.154Z,9.30
2023-04-25T06:52:58.118Z,9.60
2023-04-25T06:55:26.068Z,9.30
2023-04-25T06:57:54.149Z,9.70
2023-04-25T07:00:22.937Z,9.00
2023-04-25T07:02:51.341Z,8.70
2023-04-25T07:05:19.620Z,8.50
2023-04-25T07:07:49.008Z,8.40
2023-04-25T07:10:17.242Z,8.40
2023-04-25T07:12:45.260Z,8.50
2023-04-25T07:15:13.285Z,9.00
2023-04-25T07:17:41.305Z,9.20
2023-04-25T07:20:11.092Z,9.40
2023-04-25T07:22:39.116Z,9.50
2023-04-25T07:25:09.575Z,10.00
2023-04-25T07:27:37.708Z,9.30
2023-04-25T07:30:07.056Z,10.40
2023-04-25T07:32:35.319Z,9.90
2023-04-25T07:35:04.433Z,10.20
2023-04-25T07:37:32.947Z,10.60
2023-04-25T07:40:01.114Z,10.70
2023-04-25T07:42:30.516Z,10.00
2023-04-25T07:44:58.498Z,9.80
2023-04-25T07:47:26.613Z,9.70
2023-04-25T07:49:55.248Z,11.60
2023-04-25T07:52:23.359Z,10.40
2023-04-25T07:54:52.117Z,10.20
2023-04-25T07:57:21.291Z,10.10
2023-04-25T07:59:50.903Z,10.50
2023-04-25T08:02:18.945Z,12.00
2023-04-25T08:04:47.512Z,10.80
2023-04-25T08:07:15.576Z,11.20
2023-04-25T08:09:43.604Z,11.40
2023-04-25T08:12:11.957Z,11.40
2023-04-25T08:14:40.880Z,13.60
2023-04-25T08:17:10.653Z,13.40
2023-04-25T08:19:38.674Z,13.40
2023-04-25T08:22:06.615Z,13.50
2023-04-25T08:24:35.666Z,12.60
2023-04-25T08:27:04.696Z,12.80
2023-04-25T08:29:32.795Z,13.90
2023-04-25T08:32:00.807Z,14.70
2023-04-25T08:34:30.368Z,12.70
2023-04-25T08:36:58.400Z,12.00
2023-04-25T08:39:27.312Z,13.90
2023-04-25T08:41:55.583Z,11.80
2023-04-25T08:44:24.499Z,13.50
2023-04-25T08:46:54.449Z,12.50
2023-04-25T08:49:22.880Z,14.30
2023-04-25T08:51:54.474Z,13.70
2023-04-25T08:54:35.651Z,13.30
2023-04-25T08:57:06.294Z,13.20
2023-04-25T08:59:36.594Z,12.00
2023-04-25T09:02:05.964Z,12.80
2023-04-25T09:04:34.445Z,11.20
2023-04-25T09:07:03.852Z,11.30
2023-04-25T09:09:32.259Z,12.60
2023-04-25T09:12:00.533Z,11.60
2023-04-25T09:14:29.112Z,11.60
2023-04-25T09:17:06.260Z,11.90
2023-04-25T09:19:42.307Z,12.00
2023-04-25T09:22:12.447Z,11.90
2023-04-25T09:24:43.536Z,11.80
2023-04-25T09:27:14.891Z,12.10
2023-04-25T09:29:44.151Z,12.90
2023-04-25T09:32:18.611Z,14.50
2023-04-25T09:34:49.289Z,13.50
2023-04-25T09:37:22.561Z,13.70
2023-04-25T09:39:51.591Z,13.60
2023-04-25T09:42:19.980Z,13.30
2023-04-25T09:44:48.785Z,12.60
2023-04-25T09:47:18.834Z,12.50
2023-04-25T09:49:46.958Z,12.40
2023-04-25T09:52:22.756Z,13.00
2023-04-25T09:54:52.739Z,11.70
2023-04-25T09:57:22.186Z,11.80
2023-04-25T09:59:52.123Z,10.90
2023-04-25T10:02:21.769Z,10.60
2023-04-25T10:04:53.555Z,10.30
2023-04-25T10:07:26.860Z,10.40
2023-04-25T10:10:01.476Z,10.40
2023-04-25T10:12:29.529Z,9.90
2023-04-25T10:14:57.680Z,10.20
2023-04-25T10:17:25.924Z,9.70
2023-04-25T10:19:54.294Z,9.50
2023-04-25T10:22:31.548Z,9.50
2023-04-25T10:24:59.700Z,10.50
2023-04-25T10:27:29.631Z,12.00
2023-04-25T10:30:05.301Z,12.80
2023-04-25T10:32:33.963Z,13.50
2023-04-25T10:35:13.288Z,15.10
2023-04-25T10:37:59.230Z,15.40
2023-04-25T10:40:27.909Z,16.40
2023-04-25T10:42:57.101Z,16.50
2023-04-25T10:45:25.140Z,16.50
2023-04-25T10:47:53.206Z,14.50
2023-04-25T10:50:21.121Z,14.00
2023-04-25T10:52:50.557Z,12.40
2023-04-25T10:55:21.516Z,11.60
2023-04-25T10:57:50.961Z,11.70
2023-04-25T11:00:21.748Z,13.50
2023-04-25T11:02:54.227Z,12.30
2023-04-25T11:05:26.071Z,12.80
2023-04-25T11:10:30.213Z,13.60
2023-04-25T11:12:58.794Z,14.10
2023-04-25T11:15:27.429Z,13.50
2023-04-25T11:17:55.813Z,13.30
2023-04-25T11:20:29.325Z,13.10
2023-04-25T11:23:00.574Z,13.30
2023-04-25T11:25:29.100Z,13.70
2023-04-25T11:27:59.417Z,13.50
2023-04-25T11:30:28.491Z,13.70
2023-04-25T11:32:57.199Z,16.10
2023-04-25T11:35:26.883Z,15.40
2023-04-25T11:37:57.028Z,15.80
2023-04-25T11:40:26.875Z,16.60
2023-04-25T11:42:54.996Z,17.50
2023-04-25T11:45:26.323Z,16.60
2023-04-25T11:47:54.944Z,13.30
2023-04-25T11:50:23.062Z,15.00
2023-04-25T11:52:51.430Z,15.70
2023-04-25T11:55:22.185Z,16.90
2023-04-25T11:57:52.185Z,16.90
2023-04-25T12:00:22.293Z,17.20
2023-04-25T12:02:54.449Z,16.70
2023-04-25T12:05:32.886Z,16.80
2023-04-25T12:08:13.844Z,16.10
2023-04-25T12:10:44.010Z,16.50
2023-04-25T12:13:24.707Z,17.10
2023-04-25T12:15:53.147Z,17.80
2023-04-25T12:18:22.840Z,18.30
2023-04-25T12:20:50.899Z,18.00
2023-04-25T12:23:19.398Z,17.30
2023-04-25T12:25:48.258Z,17.50
2023-04-25T12:28:20.534Z,17.30
2023-04-25T12:31:00.732Z,17.10
2023-04-25T12:33:29.998Z,16.10
2023-04-25T12:35:58.639Z,15.40
2023-04-25T12:38:28.227Z,14.90
2023-04-25T12:40:56.542Z,14.40
2023-04-25T12:43:25.040Z,14.00
2023-04-25T12:45:54.739Z,13.70
2023-04-25T12:48:25.055Z,13.60
2023-04-25T12:50:53.671Z,13.30
2023-04-25T12:53:23.401Z,13.90
2023-04-25T12:55:51.640Z,13.30
2023-04-25T12:58:20.945Z,13.20
2023-04-25T13:00:49.434Z,12.90
2023-04-25T13:03:17.637Z,13.20
2023-04-25T13:05:47.320Z,14.90
2023-04-25T13:08:15.464Z,13.60
2023-04-25T13:10:43.712Z,13.60
2023-04-25T13:13:12.000Z,13.50
2023-04-25T13:15:40.166Z,13.80
2023-04-25T13:18:11.763Z,12.60
2023-04-25T13:20:41.636Z,12.50
2023-04-25T13:23:12.094Z,10.50
2023-04-25T13:25:41.442Z,12.20
2023-04-25T13:28:10.059Z,10.40
2023-04-25T13:30:39.205Z,12.30
2023-04-25T13:33:07.768Z,12.10
2023-04-25T13:35:37.758Z,12.80
2023-04-25T13:38:06.496Z,12.10
2023-04-25T13:40:35.790Z,12.00
2023-04-25T13:43:03.972Z,12.10
2023-04-25T13:45:33.538Z,12.30
2023-04-25T13:48:01.874Z,12.50
2023-04-25T13:50:29.988Z,12.30
2023-04-25T13:52:57.992Z,12.20
2023-04-25T13:55:25.970Z,12.80
2023-04-25T13:57:55.789Z,12.20
2023-04-25T14:00:24.153Z,13.40
2023-04-25T14:02:52.323Z,11.80
2023-04-25T14:05:20.620Z,12.40
2023-04-25T14:07:48.876Z,12.70
2023-04-25T14:10:16.902Z,13.80
2023-04-25T14:12:44.840Z,14.50
2023-04-25T14:15:14.416Z,14.40
2023-04-25T14:17:42.535Z,13.80
2023-04-25T14:20:11.987Z,13.90
2023-04-25T14:22:43.907Z,14.20
2023-04-25T14:25:12.064Z,14.10
2023-04-25T14:27:40.136Z,14.20
2023-04-25T14:30:10.183Z,14.20
2023-04-25T14:32:40.191Z,13.90
2023-04-25T14:35:08.979Z,13.60
2023-04-25T14:37:37.060Z,13.30
2023-04-25T14:40:05.622Z,13.10
2023-04-25T14:42:35.264Z,12.80
2023-04-25T14:45:03.653Z,12.60
2023-04-25T14:47:32.772Z,12.70
2023-04-25T14:50:02.904Z,12.50
2023-04-25T14:52:31.750Z,12.50
2023-04-25T14:55:00.991Z,12.40
2023-04-25T14:57:29.089Z,12.30
2023-04-25T14:59:57.116Z,12.20
2023-04-25T15:02:26.013Z,12.20
2023-04-25T15:04:54.197Z,12.20
2023-04-25T15:07:23.781Z,12.20
2023-04-25T15:09:52.174Z,12.30
2023-04-25T15:12:20.337Z,12.20
2023-04-25T15:14:48.493Z,12.00
2023-04-25T15:17:16.549Z,12.80
2023-04-25T15:19:44.758Z,12.70
2023-04-25T15:22:12.822Z,12.70
2023-04-25T15:24:42.178Z,13.70
2023-04-25T15:27:10.254Z,12.00
2023-04-25T15:29:38.519Z,12.00
2023-04-25T15:32:07.229Z,12.10
2023-04-25T15:34:36.366Z,11.90
2023-04-25T15:37:04.550Z,13.40
2023-04-25T15:39:33.100Z,13.30
2023-04-25T15:42:02.509Z,11.40
2023-04-25T15:44:30.486Z,11.40
2023-04-25T15:46:58.625Z,11.30
2023-04-25T15:49:26.960Z,13.60
2023-04-25T15:51:55.689Z,12.70
2023-04-25T15:54:23.677Z,11.50
2023-04-25T15:56:51.707Z,11.40
2023-04-25T15:59:21.032Z,11.60
2023-04-25T16:01:49.436Z,11.30
2023-04-25T16:04:17.712Z,11.20
2023-04-25T16:06:46.127Z,12.70
2023-04-25T16:09:14.212Z,13.20
2023-04-25T16:11:42.472Z,12.80
2023-04-25T16:14:10.646Z,11.00
2023-04-25T16:16:40.159Z,12.60
2023-04-25T16:19:08.177Z,12.60
2023-04-25T16:21:36.552Z,11.10
2023-04-25T16:24:04.802Z,11.00
2023-04-25T16:26:32.757Z,11.00
2023-04-25T16:29:01.226Z,11.10
2023-04-25T16:31:29.240Z,12.40
2023-04-25T16:33:58.702Z,10.90
2023-04-25T16:36:27.116Z,10.90
2023-04-25T16:38:55.205Z,12.00
2023-04-25T16:41:23.222Z,10.70
2023-04-25T16:43:51.308Z,11.20
2023-04-25T16:46:19.712Z,12.50
2023-04-25T16:48:48.854Z,11.30
2023-04-25T16:51:19.589Z,10.60
2023-04-25T16:53:48.512Z,10.90
2023-04-25T16:56:17.110Z,10.70
2023-04-25T16:58:45.604Z,10.70
2023-04-25T17:01:16.225Z,10.60
2023-04-25T17:03:45.070Z,10.70
2023-04-25T17:06:14.225Z,10.60
2023-04-25T17:08:43.612Z,10.50
2023-04-25T17:11:11.848Z,10.40
2023-04-25T17:13:39.943Z,10.30
2023-04-25T17:16:08.376Z,10.10
2023-04-25T17:18:37.162Z,9.90
2023-04-25T17:21:06.049Z,8.90
2023-04-25T17:23:35.028Z,9.70
2023-04-25T17:26:04.469Z,9.90
2023-04-25T17:28:32.549Z,9.50
2023-04-25T17:31:00.752Z,9.50
2023-04-25T17:33:28.936Z,9.50
2023-04-25T17:35:57.093Z,9.40
2023-04-25T17:38:25.084Z,9.60
2023-04-25T17:40:53.418Z,9.30
2023-04-25T17:43:23.008Z,9.40
2023-04-25T17:45:51.280Z,10.80
2023-04-25T17:48:19.358Z,9.00
2023-04-25T17:50:47.601Z,9.10
2023-04-25T17:53:15.725Z,8.90
2023-04-25T17:55:43.887Z,10.20
2023-04-25T17:58:12.109Z,8.80
2023-04-25T18:00:41.858Z,10.30
2023-04-25T18:03:09.990Z,9.50
2023-04-25T18:05:38.231Z,8.70
2023-04-25T18:08:06.896Z,8.60
2023-04-25T18:10:35.341Z,9.10
2023-04-25T18:13:03.352Z,8.50
2023-04-25T18:15:31.728Z,8.40
2023-04-25T18:18:03.470Z,8.30
2023-04-25T18:20:31.563Z,8.40
2023-04-25T18:22:59.592Z,8.30
2023-04-25T18:25:27.656Z,8.30
2023-04-25T18:27:55.828Z,8.30
2023-04-25T18:30:23.903Z,8.30
2023-04-25T18:32:52.036Z,8.20
2023-04-25T18:35:22.511Z,8.20
2023-04-25T18:37:50.687Z,8.20
2023-04-25T18:40:18.809Z,8.80
2023-04-25T18:42:46.907Z,8.10
2023-04-25T18:45:15.999Z,8.20
2023-04-25T18:47:44.121Z,8.20
2023-04-25T18:50:12.877Z,8.20
2023-04-25T18:52:43.194Z,8.20
2023-04-25T18:55:11.621Z,9.50
2023-04-25T18:57:39.768Z,8.20
2023-04-25T19:00:09.365Z,8.20
2023-04-25T19:02:38.132Z,8.10
2023-04-25T19:05:07.039Z,8.20
2023-04-25T19:07:35.121Z,8.10
2023-04-25T19:10:04.774Z,8.10
2023-04-25T19:12:34.155Z,9.60
2023-04-25T19:15:02.131Z,8.00
2023-04-25T19:17:30.661Z,8.70
2023-04-25T19:19:58.712Z,8.00
2023-04-25T19:22:27.436Z,7.90
2023-04-25T19:25:03.064Z,10.00
2023-04-25T19:27:39.344Z,7.80
2023-04-25T19:30:11.447Z,8.40
2023-04-25T19:32:39.777Z,7.70
2023-04-25T19:35:11.413Z,7.80
2023-04-25T19:37:45.971Z,7.60
2023-04-25T19:40:15.951Z,8.40
2023-04-25T19:42:45.961Z,7.40
2023-04-25T19:45:14.020Z,7.40
2023-04-25T19:47:42.733Z,7.30
2023-04-25T19:50:11.863Z,7.30
2023-04-25T19:52:40.517Z,7.20
2023-04-25T19:55:10.257Z,7.80
2023-04-25T19:57:38.590Z,7.10
2023-04-25T20:00:10.812Z,7.90
2023-04-25T20:02:39.084Z,7.10
2023-04-25T20:05:08.354Z,7.10
2023-04-25T20:07:37.247Z,7.10
2023-04-25T20:10:07.974Z,7.20
2023-04-25T20:12:40.568Z,7.10
2023-04-25T20:15:12.226Z,7.10
2023-04-25T20:17:42.755Z,7.10
2023-04-25T20:20:12.536Z,7.30
2023-04-25T20:22:41.251Z,7.30
2023-04-25T20:25:11.983Z,7.20
2023-04-25T20:27:40.416Z,7.00
2023-04-25T20:30:12.053Z,8.30
2023-04-25T20:32:40.905Z,7.20
2023-04-25T20:35:10.307Z,9.40
2023-04-25T20:37:38.900Z,7.00
2023-04-25T20:40:09.372Z,9.40
2023-04-25T20:42:38.399Z,7.10
2023-04-25T20:45:12.687Z,8.80
2023-04-25T20:47:44.595Z,6.90
2023-04-25T20:50:13.037Z,8.30
2023-04-25T20:52:41.919Z,8.60
2023-04-25T20:55:10.967Z,9.00
2023-04-25T20:57:39.634Z,6.80
2023-04-25T21:00:16.787Z,8.50
2023-04-25T21:02:47.418Z,6.90
2023-04-25T21:05:15.961Z,9.10
2023-04-25T21:07:44.703Z,9.00
2023-04-25T21:10:14.451Z,9.20
2023-04-25T21:12:44.204Z,8.10
2023-04-25T21:15:14.504Z,7.60
2023-04-25T21:17:42.946Z,9.00
2023-04-25T21:20:13.672Z,7.00
2023-04-25T21:22:49.851Z,5.90
2023-04-25T21:25:24.326Z,8.80
2023-04-25T21:27:53.785Z,7.50
2023-04-25T21:30:24.423Z,6.60
2023-04-25T21:32:54.084Z,7.00
2023-04-25T21:35:24.323Z,6.60
2023-04-25T21:37:53.123Z,6.70
2023-04-25T21:40:21.732Z,6.70
2023-04-25T21:42:53.646Z,8.50
2023-04-25T21:45:22.573Z,6.80
2023-04-25T21:47:51.956Z,7.60
2023-04-25T21:50:21.114Z,9.10
2023-04-25T21:52:54.247Z,9.00
2023-04-25T21:55:22.928Z,7.40
2023-04-25T21:57:51.973Z,6.80
2023-04-25T22:00:24.959Z,8.90
2023-04-25T22:02:54.231Z,6.80
2023-04-25T22:05:23.719Z,6.70
2023-04-25T22:07:56.544Z,6.30
2023-04-25T22:10:25.613Z,9.10
2023-04-25T22:12:54.305Z,6.80
2023-04-25T22:15:24.144Z,8.90
2023-04-25T22:17:55.634Z,6.80
2023-04-25T22:20:26.801Z,6.80
2023-04-25T22:22:57.948Z,8.20
2023-04-25T22:25:26.804Z,7.80
2023-04-25T22:27:55.931Z,6.80
2023-04-25T22:30:31.237Z,7.10
2023-04-25T22:33:01.069Z,6.80
2023-04-25T22:35:29.668Z,5.50
2023-04-25T22:37:59.512Z,8.90
2023-04-25T22:40:27.837Z,9.10
2023-04-25T22:42:56.685Z,8.50
2023-04-25T22:45:25.092Z,8.50
2023-04-25T22:47:53.350Z,8.90
2023-04-25T22:50:21.645Z,7.60
2023-04-25T22:52:50.072Z,5.10
2023-04-25T22:55:20.065Z,7.50
2023-04-25T22:57:48.505Z,8.80
2023-04-25T23:00:20.186Z,8.50
2023-04-25T23:02:50.583Z,6.10
2023-04-25T23:05:19.341Z,6.00
2023-04-25T23:07:48.502Z,6.00
2023-04-25T23:10:17.445Z,6.90
2023-04-25T23:12:47.127Z,7.40
2023-04-25T23:15:15.751Z,6.70
2023-04-25T23:17:44.640Z,7.00
2023-04-25T23:20:13.804Z,7.80
2023-04-25T23:22:42.420Z,5.40
2023-04-25T23:25:11.959Z,5.40
2023-04-25T23:27:40.255Z,5.40
2023-04-25T23:30:11.447Z,6.70
2023-04-25T23:32:40.138Z,5.20
2023-04-25T23:35:10.077Z,6.30
2023-04-25T23:37:40.393Z,5.00
2023-04-25T23:40:12.224Z,4.50
2023-04-25T23:42:42.823Z,5.00
2023-04-25T23:45:14.454Z,7.10
2023-04-25T23:47:43.271Z,5.00
2023-04-25T23:50:12.257Z,7.40
2023-04-25T23:52:40.668Z,2.60
2023-04-25T23:55:09.905Z,5.10
2023-04-25T23:57:38.441Z,4.90
